Time;durP1;ratioP1;P1;durP2;ratioP2;P2;SDS_P1;SDS_P2;PMS_P1;PMS_P2;Temp;Humidity;BMP_temperature;BMP_pressure;BME280_temperature;BME280_humidity;BME280_pressure;Samples;Min_cycle;Max_cycle;Signal;HPM_P1;HPM_P2
2023/03/19 00:01:14;;;;;;;18.90;11.90;;;;;;;4.24;68.10;100258.77;107510;1257;73722;-38
2023/03/19 00:03:45;;;;;;;16.60;11.60;;;;;;;4.27;68.25;100255.16;107475;1257;69618;-38
2023/03/19 00:06:13;;;;;;;16.60;12.10;;;;;;;4.34;68.12;100251.77;107473;1253;72767;-38
2023/03/19 00:08:47;;;;;;;20.20;12.90;;;;;;;4.38;68.10;100247.79;107262;1253;208142;-39
2023/03/19 00:12:16;;;;;;;16.40;12.00;;;;;;;4.48;67.86;100248.14;104279;1293;600447;-39
2023/03/19 00:14:45;;;;;;;19.10;13.00;;;;;;;4.52;67.73;100241.08;106782;1266;59908;-38
2023/03/19 00:17:14;;;;;;;17.40;11.20;;;;;;;4.57;67.71;100241.73;106755;1265;60322;-39
2023/03/19 00:19:43;;;;;;;16.40;12.00;;;;;;;4.60;67.63;100243.98;106834;1267;72127;-38
2023/03/19 00:22:14;;;;;;;16.40;12.10;;;;;;;4.62;67.53;100241.20;106840;1267;69967;-39
2023/03/19 00:24:43;;;;;;;17.90;12.60;;;;;;;4.64;67.52;100237.67;106790;1267;73861;-38
2023/03/19 00:27:11;;;;;;;16.90;12.00;;;;;;;4.63;67.27;100236.79;106688;1267;60217;-38
2023/03/19 00:29:41;;;;;;;;;;;;;;;4.61;67.18;100234.13;106865;1267;62508;-38
2023/03/19 00:32:10;;;;;;;15.60;11.40;;;;;;;4.57;67.31;100230.93;106887;1263;73492;-38
2023/03/19 00:34:39;;;;;;;16.00;11.50;;;;;;;4.54;67.62;100228.09;106861;1264;69939;-39
2023/03/19 00:37:11;;;;;;;19.90;12.50;;;;;;;4.56;67.72;100228.98;106646;1264;73568;-39
2023/03/19 00:39:46;;;;;;;15.00;11.50;;;;;;;4.57;67.69;100227.61;106712;1264;60555;-38
2023/03/19 00:42:15;;;;;;;11.20;8.00;;;;;;;4.54;67.82;100224.02;106849;1264;59970;-38
2023/03/19 00:44:44;;;;;;;16.40;11.60;;;;;;;4.54;67.79;100223.16;106971;1260;74240;-39
2023/03/19 00:47:12;;;;;;;17.80;12.40;;;;;;;4.54;67.78;100219.78;107069;1260;69911;-38
2023/03/19 00:49:41;;;;;;;20.80;12.40;;;;;;;4.56;67.61;100218.35;106814;1264;74119;-38
2023/03/19 00:52:11;;;;;;;15.80;11.70;;;;;;;4.58;67.74;100220.40;106882;1264;59599;-38
2023/03/19 00:54:42;;;;;;;14.70;10.40;;;;;;;4.57;67.54;100220.52;106982;1265;60009;-38
2023/03/19 00:57:10;;;;;;;15.00;11.10;;;;;;;4.60;67.66;100215.52;106936;1264;74276;-39
2023/03/19 00:59:40;;;;;;;16.40;11.90;;;;;;;4.64;67.78;100214.77;106928;1263;70007;-39
2023/03/19 01:02:09;;;;;;;16.90;12.00;;;;;;;4.66;67.63;100214.05;106931;1263;73662;-38
2023/03/19 01:04:39;;;;;;;17.10;11.10;;;;;;;4.67;67.60;100212.05;106931;1263;60897;-38
2023/03/19 01:07:07;;;;;;;15.40;10.80;;;;;;;4.68;67.55;100211.60;105499;1263;1003609;-38
2023/03/19 01:09:37;;;;;;;15.10;12.00;;;;;;;4.67;67.53;100215.10;106954;1264;74382;-38
2023/03/19 01:12:06;;;;;;;19.00;12.30;;;;;;;4.68;67.53;100214.73;106931;1262;69943;-39
2023/03/19 01:14:35;;;;;;;16.30;11.60;;;;;;;4.65;67.28;100212.19;105409;1264;1016121;-38
2023/03/19 01:17:04;;;;;;;15.10;11.30;;;;;;;4.59;67.40;100213.02;106977;1261;60605;-38
2023/03/19 01:19:32;;;;;;;19.90;12.10;;;;;;;4.58;67.44;100212.23;107677;1253;61500;-38
2023/03/19 01:22:03;;;;;;;15.70;11.40;;;;;;;4.59;67.34;100206.89;107628;1252;74259;-39
2023/03/19 01:24:32;;;;;;;17.70;11.40;;;;;;;4.61;67.46;100206.84;107674;1253;69626;-38
2023/03/19 01:27:01;;;;;;;15.20;11.90;;;;;;;4.62;67.62;100207.32;107474;1254;73858;-39
2023/03/19 01:29:35;;;;;;;15.00;11.40;;;;;;;4.61;67.63;100205.98;107512;1254;60456;-38
2023/03/19 01:32:35;;;;;;;19.30;11.80;;;;;;;4.65;67.54;100205.05;107500;1253;61315;-38
2023/03/19 01:35:19;;;;;;;16.20;11.90;;;;;;;4.59;67.38;100202.65;107493;1253;73844;-39
2023/03/19 01:37:48;;;;;;;17.00;12.20;;;;;;;4.53;67.77;100202.23;107550;1254;69855;-39
2023/03/19 01:40:17;;;;;;;17.60;12.90;;;;;;;4.56;67.81;100198.95;107541;1253;73562;-38
2023/03/19 01:42:51;;;;;;;19.80;12.50;;;;;;;4.56;67.53;100204.21;107457;1253;60473;-38
2023/03/19 01:45:51;;;;;;;18.70;11.80;;;;;;;4.57;67.60;100198.86;107065;1263;61258;-39
2023/03/19 01:48:41;;;;;;;18.80;11.20;;;;;;;4.64;67.44;100201.24;107596;1257;73972;-39
2023/03/19 01:51:15;;;;;;;18.30;12.20;;;;;;;4.67;67.21;100204.70;107505;1254;69625;-39
2023/03/19 01:54:00;;;;;;;17.20;12.10;;;;;;;4.68;66.94;100203.86;107482;1253;73571;-39
2023/03/19 01:56:39;;;;;;;17.90;12.40;;;;;;;4.68;66.66;100205.75;107496;1253;60470;-39
2023/03/19 01:59:24;;;;;;;15.60;11.40;;;;;;;4.65;66.14;100205.84;107487;1253;61257;-39
2023/03/19 02:02:33;;;;;;;16.90;12.00;;;;;;;4.61;65.86;100207.00;107483;1257;73587;-39
2023/03/19 02:05:14;;;;;;;17.10;11.70;;;;;;;4.53;65.61;100211.04;107465;1253;69930;-39
2023/03/19 02:07:49;;;;;;;18.40;12.80;;;;;;;4.42;65.62;100208.89;107357;1253;73662;-38
2023/03/19 02:10:19;;;;;;;20.10;13.00;;;;;;;4.32;65.90;100210.41;107518;1254;60537;-38
2023/03/19 02:12:48;;;;;;;18.30;13.60;;;;;;;4.25;65.90;100211.53;107525;1254;61218;-38
2023/03/19 02:15:19;;;;;;;19.40;13.10;;;;;;;4.17;65.92;100211.17;107554;1257;74270;-39
2023/03/19 02:17:48;;;;;;;18.10;12.70;;;;;;;4.06;65.78;100205.32;107474;1254;69467;-38
2023/03/19 02:20:19;;;;;;;17.10;13.10;;;;;;;4.04;65.87;100215.16;107513;1253;73255;-38
2023/03/19 02:23:04;;;;;;;17.70;13.40;;;;;;;3.99;65.80;100215.35;107634;1253;60471;-38
2023/03/19 02:25:54;;;;;;;19.00;12.30;;;;;;;3.94;66.12;100211.11;107471;1253;60901;-38
2023/03/19 02:28:23;;;;;;;19.40;13.30;;;;;;;3.99;65.88;100214.83;107558;1253;74257;-38
2023/03/19 02:30:52;;;;;;;21.20;13.80;;;;;;;4.02;65.77;100213.48;107588;1253;70206;-38
2023/03/19 02:33:21;;;;;;;22.50;14.80;;;;;;;4.00;65.61;100212.02;107492;1254;73192;-39
2023/03/19 02:35:50;;;;;;;21.30;13.90;;;;;;;3.98;65.65;100212.48;107578;1253;60694;-38
2023/03/19 02:38:22;;;;;;;18.50;13.10;;;;;;;3.95;65.50;100214.30;107522;1254;60206;-38
2023/03/19 02:40:57;;;;;;;20.40;13.50;;;;;;;3.87;65.19;100216.31;107505;1254;74236;-39
2023/03/19 02:43:28;;;;;;;19.80;13.90;;;;;;;3.80;65.16;100220.08;107538;1253;68579;-38
2023/03/19 02:45:57;;;;;;;19.10;13.90;;;;;;;3.74;65.05;100218.08;107581;1253;72348;-38
2023/03/19 02:48:25;;;;;;;23.00;14.80;;;;;;;3.68;64.88;100219.63;107488;1254;60491;-38
2023/03/19 02:50:54;;;;;;;20.30;14.80;;;;;;;3.62;65.04;100220.58;107501;1254;60626;-38
2023/03/19 02:53:25;;;;;;;20.30;15.30;;;;;;;3.56;64.61;100221.43;107503;1255;73113;-38
2023/03/19 02:55:54;;;;;;;23.20;16.10;;;;;;;3.47;64.82;100223.39;107530;1253;68269;-38
2023/03/19 02:58:23;;;;;;;24.50;16.20;;;;;;;3.38;64.84;100219.02;107516;1253;73769;-38
2023/03/19 03:00:52;;;;;;;28.20;18.70;;;;;;;3.28;64.82;100219.16;107492;1254;59613;-38
2023/03/19 03:03:22;;;;;;;26.80;18.30;;;;;;;3.17;65.03;100221.15;107526;1253;61458;-38
2023/03/19 03:05:50;;;;;;;27.40;17.50;;;;;;;3.07;65.38;100226.96;107470;1253;74219;-38
2023/03/19 03:08:19;;;;;;;23.90;17.00;;;;;;;2.96;65.34;100226.61;107524;1253;69606;-38
2023/03/19 03:10:48;;;;;;;17.20;13.00;;;;;;;2.96;65.55;100229.56;107522;1257;73686;-37
2023/03/19 03:13:21;;;;;;;25.30;18.20;;;;;;;2.96;65.64;100231.70;107494;1253;60794;-38
2023/03/19 03:15:50;;;;;;;28.20;18.30;;;;;;;2.89;65.57;100229.61;107505;1253;60850;-39
2023/03/19 03:18:19;;;;;;;23.80;15.40;;;;;;;2.75;65.61;100231.61;107502;1253;74232;-38
2023/03/19 03:20:48;;;;;;;31.00;21.70;;;;;;;2.58;66.07;100231.04;107495;1253;69085;-38
2023/03/19 03:23:17;;;;;;;29.90;20.60;;;;;;;2.47;66.69;100235.98;107482;1253;74028;-38
2023/03/19 03:25:50;;;;;;;37.30;23.20;;;;;;;2.37;66.87;100237.53;107486;1253;60818;-38
2023/03/19 03:28:19;;;;;;;33.40;22.40;;;;;;;2.27;67.13;100238.08;107503;1253;61459;-38
2023/03/19 03:30:48;;;;;;;32.80;22.10;;;;;;;2.20;67.50;100236.90;107483;1253;74251;-38
2023/03/19 03:33:17;;;;;;;33.60;23.20;;;;;;;2.26;67.64;100238.98;107518;1253;69963;-38
2023/03/19 03:35:46;;;;;;;37.20;25.40;;;;;;;2.23;67.63;100238.80;107507;1253;73906;-38
2023/03/19 03:38:15;;;;;;;38.60;25.70;;;;;;;2.12;68.24;100241.04;107511;1254;60896;-38
2023/03/19 03:40:49;;;;;;;39.80;27.30;;;;;;;2.07;68.91;100238.04;107472;1254;61225;-39
2023/03/19 03:43:19;;;;;;;46.10;28.00;;;;;;;2.07;69.74;100242.45;106755;1253;1003875;-39
2023/03/19 03:45:48;;;;;;;40.00;26.30;;;;;;;2.03;70.19;100236.69;107493;1253;69682;-39
2023/03/19 03:48:17;;;;;;;39.20;26.80;;;;;;;2.07;70.58;100238.52;107547;1254;73802;-38
2023/03/19 03:50:45;;;;;;;37.40;26.00;;;;;;;2.12;71.18;100238.36;107479;1253;60910;-38
2023/03/19 03:53:19;;;;;;;44.90;28.80;;;;;;;2.17;71.62;100241.26;107476;1253;61251;-38
2023/03/19 03:55:48;;;;;;;45.10;28.90;;;;;;;2.22;72.03;100238.82;107509;1253;73095;-39
2023/03/19 03:58:20;;;;;;;39.30;27.10;;;;;;;2.28;72.24;100237.05;107614;1253;69721;-39
2023/03/19 04:00:49;;;;;;;42.00;26.40;;;;;;;2.34;72.51;100242.92;107492;1253;73700;-39
2023/03/19 04:03:19;;;;;;;39.40;26.90;;;;;;;2.46;72.72;100237.70;107503;1253;60735;-39
2023/03/19 04:05:48;;;;;;;39.30;27.10;;;;;;;2.52;73.05;100238.50;107498;1253;61272;-39
2023/03/19 04:08:17;;;;;;;40.70;27.80;;;;;;;2.57;73.26;100237.05;106752;1253;1003077;-39
2023/03/19 04:10:46;;;;;;;46.20;29.10;;;;;;;2.59;73.36;100234.36;107509;1253;69835;-39
2023/03/19 04:13:14;;;;;;;39.80;27.30;;;;;;;2.58;73.59;100239.39;107451;1253;73945;-39
2023/03/19 04:15:45;;;;;;;37.70;27.30;;;;;;;2.69;73.73;100232.90;107567;1253;62103;-39
2023/03/19 04:18:14;;;;;;;39.50;28.00;;;;;;;2.81;73.58;100235.92;107540;1254;61306;-39
2023/03/19 04:20:43;;;;;;;37.60;26.60;;;;;;;2.89;73.40;100231.84;104502;1257;1003821;-38
2023/03/19 04:23:14;;;;;;;39.10;27.60;;;;;;;2.94;73.20;100233.23;107604;1253;68799;-39
2023/03/19 04:25:43;;;;;;;40.40;28.00;;;;;;;2.98;73.01;100230.25;107484;1253;74053;-39
2023/03/19 04:28:12;;;;;;;42.30;28.30;;;;;;;3.04;73.11;100227.42;107457;1253;60760;-38
2023/03/19 04:30:42;;;;;;;34.90;23.90;;;;;;;3.08;72.71;100225.92;107516;1253;61521;-39
2023/03/19 04:33:12;;;;;;;37.00;25.90;;;;;;;3.19;72.66;100225.57;107459;1253;74897;-38
2023/03/19 04:35:42;;;;;;;36.50;25.60;;;;;;;3.26;72.28;100219.68;107363;1253;69708;-38
2023/03/19 04:38:12;;;;;;;39.60;26.80;;;;;;;3.34;72.35;100218.61;107462;1253;73913;-38
2023/03/19 04:40:40;;;;;;;35.70;25.60;;;;;;;3.38;72.05;100221.75;107502;1253;60344;-38
2023/03/19 04:43:09;;;;;;;37.10;26.00;;;;;;;3.38;71.97;100220.73;107533;1254;61267;-39
2023/03/19 04:45:39;;;;;;;36.00;24.90;;;;;;;3.38;71.77;100217.25;107500;1253;74174;-38
2023/03/19 04:48:08;;;;;;;27.90;19.10;;;;;;;3.40;71.63;100216.58;106869;1255;1003135;-38
2023/03/19 04:50:37;;;;;;;38.00;25.30;;;;;;;3.45;71.56;100216.88;107536;1253;72661;-38
2023/03/19 04:53:09;;;;;;;37.50;25.60;;;;;;;3.47;71.56;100217.60;107441;1253;61770;-39
2023/03/19 04:55:38;;;;;;;35.40;24.40;;;;;;;3.45;71.60;100209.70;107451;1253;61288;-39
2023/03/19 04:58:11;;;;;;;39.00;27.20;;;;;;;3.50;71.71;100218.73;107375;1253;74721;-39
2023/03/19 05:00:46;;;;;;;41.10;28.10;;;;;;;3.51;71.46;100217.43;107492;1253;69415;-39
2023/03/19 05:03:18;;;;;;;40.10;26.90;;;;;;;3.55;71.74;100220.69;107532;1253;73862;-39
2023/03/19 05:05:52;;;;;;;36.20;24.90;;;;;;;3.64;71.31;100223.98;107476;1253;61168;-39
2023/03/19 05:08:22;;;;;;;37.20;26.10;;;;;;;3.70;71.40;100216.32;107632;1256;60110;-39
2023/03/19 05:10:50;;;;;;;33.70;25.80;;;;;;;3.74;71.57;100220.55;107440;1253;74950;-38
2023/03/19 05:13:24;;;;;;;37.40;26.40;;;;;;;3.80;71.50;100222.75;107470;1253;69395;-39
2023/03/19 05:15:55;;;;;;;42.50;27.90;;;;;;;3.87;71.16;100218.93;107489;1254;73853;-38
2023/03/19 05:18:24;;;;;;;29.00;21.40;;;;;;;3.88;71.00;100224.17;107530;1253;60044;-39
2023/03/19 05:20:54;;;;;;;41.60;27.10;;;;;;;3.85;71.01;100225.41;107461;1253;60794;-38
2023/03/19 05:23:23;;;;;;;35.80;25.70;;;;;;;3.90;70.95;100225.39;107522;1253;74779;-38
2023/03/19 05:26:00;;;;;;;33.80;25.20;;;;;;;3.94;70.78;100224.90;107506;1253;68767;-38
2023/03/19 05:28:48;;;;;;;39.00;27.10;;;;;;;3.90;70.82;100224.75;107441;1253;73315;-38
2023/03/19 05:31:19;;;;;;;36.90;26.70;;;;;;;3.88;71.32;100220.91;107489;1253;60787;-39
2023/03/19 05:33:51;;;;;;;41.90;28.10;;;;;;;3.90;71.17;100220.66;107465;1258;61539;-38
2023/03/19 05:36:20;;;;;;;36.30;25.90;;;;;;;3.87;71.25;100220.50;107481;1253;75059;-39
2023/03/19 05:39:00;;;;;;;34.30;23.10;;;;;;;3.89;71.18;100225.13;107484;1253;69510;-39
2023/03/19 05:41:33;;;;;;;37.40;24.60;;;;;;;4.03;71.18;100225.05;107482;1253;73708;-39
2023/03/19 05:44:04;;;;;;;34.90;23.60;;;;;;;4.10;71.11;100222.69;107481;1254;61344;-38
2023/03/19 05:46:48;;;;;;;34.50;25.10;;;;;;;4.14;70.98;100222.23;107496;1253;61178;-38
2023/03/19 05:49:18;;;;;;;40.00;26.60;;;;;;;4.19;70.83;100230.14;107519;1253;74710;-38
2023/03/19 05:51:47;;;;;;;35.30;25.60;;;;;;;4.23;70.70;100230.19;106735;1253;1003800;-38
2023/03/19 05:54:15;;;;;;;35.70;24.90;;;;;;;4.24;70.57;100228.34;107465;1253;73891;-38
2023/03/19 05:57:14;;;;;;;32.20;22.60;;;;;;;4.27;70.63;100230.42;107377;1253;62096;-38
2023/03/19 05:59:43;;;;;;;31.40;22.30;;;;;;;4.31;70.55;100233.90;107512;1253;61255;-38
2023/03/19 06:02:35;;;;;;;30.90;20.40;;;;;;;4.37;70.86;100231.11;107423;1253;75149;-39
2023/03/19 06:05:32;;;;;;;26.80;18.40;;;;;;;4.46;70.60;100228.58;107376;1253;69948;-39
2023/03/19 06:08:41;;;;;;;23.20;16.50;;;;;;;4.51;70.02;100226.77;107357;1253;73540;-38
2023/03/19 06:11:21;;;;;;;24.40;16.50;;;;;;;4.54;69.65;100229.38;107491;1253;59253;-38
2023/03/19 06:13:59;;;;;;;22.70;13.30;;;;;;;4.55;69.44;100234.90;107564;1253;61590;-39
2023/03/19 06:16:29;;;;;;;19.00;13.10;;;;;;;4.63;69.25;100236.13;107498;1253;73814;-39
2023/03/19 06:19:06;;;;;;;15.80;12.10;;;;;;;4.75;69.01;100232.95;107364;1253;69967;-39
2023/03/19 06:21:37;;;;;;;18.10;12.70;;;;;;;4.86;68.29;100232.71;107539;1253;72277;-39
2023/03/19 06:24:07;;;;;;;13.10;10.20;;;;;;;4.96;67.55;100230.23;107475;1253;60407;-39
2023/03/19 06:26:40;;;;;;;12.20;9.00;;;;;;;5.03;67.00;100229.95;107453;1253;60402;-39
2023/03/19 06:29:15;;;;;;;12.70;8.90;;;;;;;5.03;66.51;100222.64;107477;1253;74748;-39
2023/03/19 06:31:46;;;;;;;10.30;7.70;;;;;;;5.12;65.99;100229.88;107526;1253;69943;-39
2023/03/19 06:34:22;;;;;;;8.50;6.80;;;;;;;5.12;65.62;100231.74;107503;1253;72407;-39
2023/03/19 06:36:52;;;;;;;11.90;7.70;;;;;;;5.14;65.14;100231.20;107531;1253;60479;-38
2023/03/19 06:39:23;;;;;;;8.90;7.40;;;;;;;5.21;65.12;100229.08;107487;1253;61266;-38
2023/03/19 06:41:52;;;;;;;8.60;6.50;;;;;;;5.22;64.53;100227.70;107528;1253;75029;-38
2023/03/19 06:44:24;;;;;;;8.70;6.10;;;;;;;5.28;63.86;100231.45;107497;1253;68769;-38
2023/03/19 06:46:53;;;;;;;8.30;6.70;;;;;;;5.29;63.80;100234.02;107511;1254;73778;-38
2023/03/19 06:49:22;;;;;;;8.10;7.00;;;;;;;5.33;63.44;100237.15;107522;1253;61388;-38
2023/03/19 06:51:52;;;;;;;8.00;6.60;;;;;;;5.39;62.84;100237.40;107482;1253;61540;-38
2023/03/19 06:54:20;;;;;;;7.60;5.40;;;;;;;5.40;62.17;100241.67;107546;1253;75061;-38
2023/03/19 06:56:49;;;;;;;8.40;6.20;;;;;;;5.39;61.81;100244.70;107505;1257;68976;-38
2023/03/19 06:59:20;;;;;;;7.20;5.70;;;;;;;5.39;61.86;100243.41;107481;1253;72506;-38
2023/03/19 07:01:48;;;;;;;9.30;7.00;;;;;;;5.39;61.76;100246.16;107472;1257;60432;-38
2023/03/19 07:04:17;;;;;;;8.10;6.40;;;;;;;5.35;61.70;100250.11;107523;1253;61816;-38
2023/03/19 07:06:46;;;;;;;8.50;6.70;;;;;;;5.32;61.79;100251.19;107485;1253;75041;-38
2023/03/19 07:09:15;;;;;;;8.80;6.80;;;;;;;5.33;61.84;100249.40;107438;1253;70043;-38
2023/03/19 07:11:43;;;;;;;7.40;6.00;;;;;;;5.32;61.61;100244.65;107411;1253;73921;-38
2023/03/19 07:14:12;;;;;;;7.70;6.10;;;;;;;5.31;61.44;100243.69;107406;1253;60548;-38
2023/03/19 07:16:42;;;;;;;6.80;5.90;;;;;;;5.34;61.32;100243.52;107447;1253;61304;-38
2023/03/19 07:19:12;;;;;;;5.70;5.10;;;;;;;5.36;61.02;100244.88;107455;1253;74540;-38
2023/03/19 07:21:41;;;;;;;7.10;5.90;;;;;;;5.40;60.91;100244.36;107454;1253;69941;-38
2023/03/19 07:24:09;;;;;;;6.90;6.10;;;;;;;5.45;60.82;100240.14;107491;1253;73732;-38
2023/03/19 07:26:38;;;;;;;7.60;6.10;;;;;;;5.47;60.13;100241.23;107484;1253;60643;-38
2023/03/19 07:29:07;;;;;;;7.30;6.00;;;;;;;5.43;60.33;100244.83;107573;1253;60313;-38
2023/03/19 07:31:35;;;;;;;7.30;6.30;;;;;;;5.40;60.13;100245.00;107557;1253;75094;-38
2023/03/19 07:34:05;;;;;;;8.00;6.40;;;;;;;5.41;60.42;100242.45;107519;1253;69969;-39
2023/03/19 07:36:35;;;;;;;7.10;6.20;;;;;;;5.46;60.51;100240.63;107521;1253;73725;-39
2023/03/19 07:39:03;;;;;;;7.10;6.00;;;;;;;5.44;60.32;100241.30;107502;1253;60471;-39
2023/03/19 07:41:31;;;;;;;7.40;6.70;;;;;;;5.42;60.31;100246.57;107517;1253;61213;-39
2023/03/19 07:44:00;;;;;;;7.00;6.20;;;;;;;5.43;60.35;100246.60;107492;1253;73793;-39
2023/03/19 07:46:33;;;;;;;7.70;5.90;;;;;;;5.50;60.61;100245.63;107508;1253;69956;-39
2023/03/19 07:49:01;;;;;;;8.40;6.50;;;;;;;5.61;60.21;100246.83;107495;1253;73511;-39
2023/03/19 07:51:29;;;;;;;8.20;6.80;;;;;;;5.69;59.95;100244.59;107483;1253;60061;-38
2023/03/19 07:54:05;;;;;;;8.40;6.60;;;;;;;5.78;59.43;100244.84;107512;1253;61198;-39
2023/03/19 07:56:36;;;;;;;9.40;7.60;;;;;;;5.86;59.43;100247.81;107566;1253;74784;-39
2023/03/19 07:59:04;;;;;;;10.00;8.50;;;;;;;5.96;59.24;100250.44;107505;1253;69733;-39
2023/03/19 08:01:34;;;;;;;;;;;;;;;5.99;58.70;100254.41;107516;1257;74923;-39
2023/03/19 08:04:03;;;;;;;11.20;9.20;;;;;;;5.86;58.72;100255.95;107491;1254;60982;-38
2023/03/19 08:06:37;;;;;;;15.30;9.40;;;;;;;5.75;59.37;100250.77;107495;1253;61534;-39
2023/03/19 08:09:06;;;;;;;13.20;9.50;;;;;;;5.76;59.33;100252.94;107545;1253;74032;-39
2023/03/19 08:11:35;;;;;;;10.80;9.30;;;;;;;5.73;59.21;100252.11;107527;1253;69895;-39
2023/03/19 08:14:04;;;;;;;12.10;9.80;;;;;;;5.64;59.26;100246.98;107509;1253;72319;-39
2023/03/19 08:16:34;;;;;;;12.00;9.30;;;;;;;5.58;59.86;100242.75;107465;1255;60562;-39
2023/03/19 08:19:03;;;;;;;12.40;10.10;;;;;;;5.56;59.95;100246.31;107478;1255;61464;-39
2023/03/19 08:21:32;;;;;;;13.50;10.10;;;;;;;5.59;60.34;100241.63;107500;1253;74869;-39
2023/03/19 08:24:02;;;;;;;11.80;9.00;;;;;;;5.64;60.27;100240.23;107580;1253;69744;-38
2023/03/19 08:26:32;;;;;;;12.00;9.60;;;;;;;5.77;60.02;100234.85;107517;1253;73948;-39
2023/03/19 08:29:03;;;;;;;11.80;8.30;;;;;;;5.94;60.11;100235.79;107504;1253;60266;-39
2023/03/19 08:31:32;;;;;;;12.20;10.00;;;;;;;6.12;59.38;100232.93;107540;1253;60344;-38
2023/03/19 08:34:03;;;;;;;12.20;10.20;;;;;;;6.21;59.15;100234.35;107479;1253;75036;-39
2023/03/19 08:36:32;;;;;;;13.20;9.90;;;;;;;6.28;58.80;100230.28;107489;1253;69862;-39
2023/03/19 08:39:03;;;;;;;11.20;9.50;;;;;;;6.35;58.68;100228.70;107554;1253;73867;-39
2023/03/19 08:41:32;;;;;;;13.30;10.20;;;;;;;6.47;58.67;100231.48;107555;1253;60456;-39
2023/03/19 08:44:00;;;;;;;14.30;11.60;;;;;;;6.63;58.40;100227.45;107533;1253;61432;-39
2023/03/19 08:46:30;;;;;;;12.00;10.30;;;;;;;6.75;57.97;100222.97;107521;1253;74056;-39
2023/03/19 08:49:04;;;;;;;12.70;9.80;;;;;;;6.85;57.29;100220.42;107517;1253;69934;-39
2023/03/19 08:51:33;;;;;;;9.20;6.80;;;;;;;6.90;56.52;100217.96;107524;1257;72687;-39
2023/03/19 08:54:01;;;;;;;14.70;11.20;;;;;;;6.92;56.21;100213.42;107471;1253;60682;-39
2023/03/19 08:56:30;;;;;;;14.60;11.40;;;;;;;6.92;56.59;100215.96;107518;1253;61537;-38
2023/03/19 08:59:02;;;;;;;14.00;11.50;;;;;;;6.88;56.28;100212.46;107512;1253;75158;-39
2023/03/19 09:01:32;;;;;;;16.80;12.60;;;;;;;6.82;56.48;100215.24;107532;1253;69944;-39
2023/03/19 09:04:01;;;;;;;13.30;11.30;;;;;;;6.77;56.89;100214.13;107472;1253;73871;-39
2023/03/19 09:06:30;;;;;;;15.20;11.70;;;;;;;6.86;56.98;100210.43;107542;1253;60274;-39
2023/03/19 09:09:00;;;;;;;14.80;11.40;;;;;;;6.98;56.76;100210.46;107520;1253;61379;-39
2023/03/19 09:11:30;;;;;;;;;;;;;;;7.07;56.43;100207.73;107542;1253;75925;-39
2023/03/19 09:13:59;;;;;;;10.90;8.30;;;;;;;7.11;56.07;100207.69;107563;1253;69647;-39
2023/03/19 09:16:28;;;;;;;11.80;9.70;;;;;;;7.16;56.24;100203.98;107519;1257;73857;-38
2023/03/19 09:19:01;;;;;;;11.90;9.80;;;;;;;7.30;56.31;100203.10;107512;1253;60912;-38
2023/03/19 09:21:30;;;;;;;13.40;10.80;;;;;;;7.51;56.14;100195.87;107540;1253;61413;-38
2023/03/19 09:23:59;;;;;;;12.00;10.00;;;;;;;7.78;55.71;100192.09;107525;1253;75050;-38
2023/03/19 09:26:28;;;;;;;11.00;9.50;;;;;;;8.07;54.72;100193.74;107541;1257;69848;-39
2023/03/19 09:28:56;;;;;;;11.30;9.10;;;;;;;8.33;54.32;100193.42;107521;1253;73890;-39
2023/03/19 09:31:27;;;;;;;11.00;8.90;;;;;;;8.67;53.59;100190.26;107551;1253;60487;-39
2023/03/19 09:33:57;;;;;;;11.90;9.20;;;;;;;9.04;52.14;100182.48;107527;1253;61982;-39
2023/03/19 09:36:25;;;;;;;12.00;9.70;;;;;;;9.26;50.66;100184.02;107535;1253;74837;-39
2023/03/19 09:38:54;;;;;;;13.20;9.90;;;;;;;9.43;50.23;100178.79;107571;1253;69948;-39
2023/03/19 09:42:02;;;;;;;14.90;10.20;;;;;;;9.67;49.98;100168.21;107556;1253;72735;-39
2023/03/19 09:44:38;;;;;;;14.60;10.40;;;;;;;10.10;49.09;100162.58;107552;1253;61568;-38
2023/03/19 09:47:19;;;;;;;12.30;9.80;;;;;;;10.40;48.04;100161.19;107603;1253;61467;-38
2023/03/19 09:49:49;;;;;;;13.40;10.30;;;;;;;10.74;47.41;100158.53;107502;1253;74590;-38
2023/03/19 09:52:40;;;;;;;12.10;9.60;;;;;;;10.88;46.97;100157.49;107509;1253;69729;-38
2023/03/19 09:55:24;;;;;;;12.60;9.00;;;;;;;11.16;46.52;100149.87;107527;1253;72875;-38
2023/03/19 09:57:55;;;;;;;11.60;9.30;;;;;;;11.38;46.00;100147.76;107520;1253;61795;-38
2023/03/19 10:00:33;;;;;;;;;;;;;;;11.51;45.35;100139.37;107551;1253;62006;-38
2023/03/19 10:03:24;;;;;;;13.60;10.00;;;;;;;11.44;44.48;100146.78;107534;1257;75126;-38
2023/03/19 10:06:26;;;;;;;11.30;9.80;;;;;;;11.24;44.97;100147.77;107553;1257;69876;-38
2023/03/19 10:09:13;;;;;;;11.70;9.90;;;;;;;11.21;45.35;100144.19;107522;1253;73888;-38
2023/03/19 10:12:16;;;;;;;15.10;9.10;;;;;;;11.22;44.76;100141.42;107531;1253;60215;-38
2023/03/19 10:15:16;;;;;;;11.60;9.70;;;;;;;11.35;43.64;100131.10;107584;1257;60791;-38
2023/03/19 10:17:54;;;;;;;11.50;9.80;;;;;;;11.52;43.42;100122.73;107564;1254;75057;-38
2023/03/19 10:21:05;;;;;;;12.60;9.90;;;;;;;11.63;42.81;100125.04;107547;1253;68528;-38
2023/03/19 10:24:12;;;;;;;14.60;10.00;;;;;;;11.89;42.86;100119.14;107450;1258;73419;-39
2023/03/19 10:26:40;;;;;;;12.10;10.20;;;;;;;12.25;42.26;100112.98;107028;1263;61426;-39
2023/03/19 10:29:17;;;;;;;11.40;9.40;;;;;;;12.51;41.79;100112.67;107430;1253;61500;-38
2023/03/19 10:31:59;;;;;;;11.40;9.60;;;;;;;12.76;40.96;100104.45;107558;1253;74619;-38
2023/03/19 10:34:32;;;;;;;12.40;9.70;;;;;;;13.03;40.58;100100.59;107499;1253;67698;-38
2023/03/19 10:37:20;;;;;;;11.00;9.80;;;;;;;13.27;39.63;100101.73;107522;1253;73912;-39
2023/03/19 10:39:56;;;;;;;11.90;10.20;;;;;;;13.52;39.85;100097.94;107430;1253;61590;-38
2023/03/19 10:42:38;;;;;;;14.00;10.30;;;;;;;13.70;39.56;100092.96;107493;1255;60525;-39
2023/03/19 10:45:19;;;;;;;13.40;10.70;;;;;;;13.94;38.90;100086.13;107401;1254;74690;-39
2023/03/19 10:47:48;;;;;;;10.50;9.40;;;;;;;14.08;37.97;100085.05;107395;1258;69915;-38
2023/03/19 10:50:22;;;;;;;12.90;10.40;;;;;;;14.18;37.99;100081.02;107505;1255;73777;-39
2023/03/19 10:53:01;;;;;;;13.00;10.10;;;;;;;14.39;38.18;100072.21;107478;1255;61407;-38
2023/03/19 10:55:30;;;;;;;15.30;10.40;;;;;;;14.69;37.79;100069.23;107491;1254;60528;-38
2023/03/19 10:58:15;;;;;;;11.70;9.20;;;;;;;14.97;36.80;100068.83;107341;1254;74787;-39
2023/03/19 11:00:46;;;;;;;10.30;9.00;;;;;;;15.19;35.89;100066.11;107393;1255;68761;-39
2023/03/19 11:03:50;;;;;;;10.90;8.40;;;;;;;15.26;34.71;100065.56;107490;1254;74213;-39
2023/03/19 11:06:39;;;;;;;10.40;9.30;;;;;;;15.02;34.36;100062.09;107387;1258;61806;-39
2023/03/19 11:09:10;;;;;;;13.60;9.80;;;;;;;14.66;34.65;100061.64;107374;1254;61256;-39
2023/03/19 11:11:47;;;;;;;13.00;9.70;;;;;;;14.44;35.87;100063.50;107502;1254;73946;-39
2023/03/19 11:14:25;;;;;;;13.10;10.10;;;;;;;14.52;36.71;100066.66;107429;1254;69651;-39
2023/03/19 11:16:58;;;;;;;11.50;9.40;;;;;;;14.84;36.34;100061.71;107456;1256;73586;-39
2023/03/19 11:19:40;;;;;;;10.50;9.20;;;;;;;15.17;35.73;100054.54;107466;1255;61530;-39
2023/03/19 11:22:08;;;;;;;10.00;8.50;;;;;;;15.41;34.87;100046.14;107358;1254;61579;-39
2023/03/19 11:24:38;;;;;;;11.70;9.00;;;;;;;15.54;34.63;100038.95;107413;1254;74703;-37
2023/03/19 11:27:08;;;;;;;13.80;9.70;;;;;;;15.62;34.54;100038.10;107491;1256;69951;-38
2023/03/19 11:29:40;;;;;;;11.10;9.40;;;;;;;15.78;34.42;100036.67;107508;1258;74102;-38
2023/03/19 11:33:00;;;;;;;11.30;9.50;;;;;;;16.11;34.84;100025.05;107502;1256;61611;-38
2023/03/19 11:35:33;;;;;;;11.10;9.00;;;;;;;16.73;33.80;100020.28;107150;1255;61573;-38
2023/03/19 11:38:05;;;;;;;10.30;8.60;;;;;;;16.90;32.10;100016.77;107497;1254;75016;-38
2023/03/19 11:40:40;;;;;;;10.80;8.60;;;;;;;17.00;32.07;100015.00;107460;1255;70075;-38